Time;durP1;ratioP1;P1;durP2;ratioP2;P2;SDS_P1;SDS_P2;PMS_P1;PMS_P2;Temp;Humidity;BMP_temperature;BMP_pressure;BME280_temperature;BME280_humidity;BME280_pressure;Samples;Min_cycle;Max_cycle;Signal;HPM_P1;HPM_P2
2022/04/14 00:00:23;;;;;;;15.43;9.85;;;11.80;71.30;;;10.67;73.11;95915.94;4891445;28;20711;-65
2022/04/14 00:02:50;;;;;;;11.70;9.10;;;11.80;71.50;;;10.66;72.51;95919.56;4889586;28;20288;-65
2022/04/14 00:05:16;;;;;;;13.25;9.27;;;11.80;71.50;;;10.64;72.25;95921.59;4882084;28;20396;-65
2022/04/14 00:07:44;;;;;;;13.60;9.95;;;11.80;71.60;;;10.61;73.44;95921.94;4890813;28;20325;-65
2022/04/14 00:10:11;;;;;;;12.70;9.45;;;11.80;71.80;;;10.56;73.64;95921.72;4883009;28;20431;-65
2022/04/14 00:12:37;;;;;;;11.63;9.88;;;11.70;72.10;;;10.51;74.37;95926.75;4897740;28;20115;-65
2022/04/14 00:15:04;;;;;;;13.55;9.75;;;11.60;72.50;;;10.48;74.59;95921.88;4883976;28;20417;-65
2022/04/14 00:17:34;;;;;;;11.93;10.07;;;11.60;72.60;;;10.44;75.38;95924.09;4906623;28;20390;-65
2022/04/14 00:20:01;;;;;;;14.38;9.75;;;11.50;73.00;;;10.41;74.80;95924.47;4917040;28;20479;-65
2022/04/14 00:22:27;;;;;;;12.55;9.90;;;11.50;72.90;;;10.39;73.94;95919.38;4891571;28;20446;-65
2022/04/14 00:24:53;;;;;;;14.05;9.30;;;11.50;73.00;;;10.37;75.06;95926.66;4903934;28;20509;-65
2022/04/14 00:27:19;;;;;;;13.85;9.27;;;11.50;72.80;;;10.34;73.56;95927.03;4876004;28;20380;-65
2022/04/14 00:29:46;;;;;;;12.52;9.45;;;11.40;73.00;;;10.33;74.43;95928.03;4888453;28;20349;-65
2022/04/14 00:32:12;;;;;;;13.95;9.52;;;11.50;72.90;;;10.31;74.16;95922.16;4893167;28;20480;-65
2022/04/14 00:34:39;;;;;;;13.55;10.45;;;11.50;73.00;;;10.29;73.91;95926.81;4902259;28;20462;-65
2022/04/14 00:37:05;;;;;;;14.00;9.90;;;11.40;72.90;;;10.26;74.91;95935.09;4867449;28;20508;-65
2022/04/14 00:39:31;;;;;;;13.73;9.82;;;11.40;72.80;;;10.23;75.28;95932.84;4922150;28;20498;-65
2022/04/14 00:41:57;;;;;;;11.88;9.55;;;11.30;72.80;;;10.23;75.03;95932.03;4896413;28;20384;-65
2022/04/14 00:44:23;;;;;;;15.90;9.73;;;11.40;72.60;;;10.20;74.48;95927.94;4891137;28;20490;-64
2022/04/14 00:46:49;;;;;;;12.30;9.48;;;11.40;72.40;;;10.17;74.22;95933.53;4903418;28;20347;-65
2022/04/14 00:49:15;;;;;;;15.70;9.70;;;11.40;72.50;;;10.15;75.00;95925.03;4903365;28;20328;-65
2022/04/14 00:51:41;;;;;;;12.57;9.52;;;11.30;72.90;;;10.14;75.28;95928.66;4888913;28;20285;-65
2022/04/14 00:54:07;;;;;;;11.25;9.63;;;11.30;72.80;;;10.13;74.30;95927.03;4874387;28;20449;-64
2022/04/14 00:56:33;;;;;;;12.45;9.65;;;11.20;72.90;;;10.11;74.50;95926.44;4887466;28;20352;-65
2022/04/14 00:58:59;;;;;;;11.80;9.40;;;11.30;72.80;;;10.09;74.88;95920.56;4917275;28;20357;-65
2022/04/14 01:01:26;;;;;;;11.95;9.77;;;11.30;72.70;;;10.07;74.39;95922.56;4864989;28;20369;-65
2022/04/14 01:03:52;;;;;;;14.15;9.80;;;11.20;73.00;;;10.07;74.07;95923.38;4884843;28;20390;-65
2022/04/14 01:06:19;;;;;;;13.65;9.95;;;11.30;72.90;;;10.05;75.51;95927.19;4886872;28;20448;-65
2022/04/14 01:11:30;;;;;;;12.27;9.52;;;11.20;72.50;;;10.02;74.38;95936.28;4893328;28;20334;-65
2022/04/14 01:13:56;;;;;;;11.02;9.05;;;11.20;72.60;;;9.99;74.14;95938.47;4895878;28;20782;-65
2022/04/14 01:16:22;;;;;;;10.93;9.20;;;11.20;72.40;;;9.96;74.43;95938.84;4890433;28;20710;-65
2022/04/14 01:18:48;;;;;;;11.25;9.32;;;11.20;72.30;;;9.93;74.55;95945.28;4856120;28;20352;-65
2022/04/14 01:21:14;;;;;;;12.23;9.57;;;11.10;72.40;;;9.91;75.18;95944.66;4868838;28;20375;-65
2022/04/14 01:23:44;;;;;;;11.43;9.10;;;11.10;72.40;;;9.89;74.94;95945.84;4870048;28;20338;-65
2022/04/14 01:26:13;;;;;;;12.77;9.90;;;11.10;72.60;;;9.88;75.21;95949.47;4883566;28;20392;-65
2022/04/14 01:28:39;;;;;;;12.80;10.10;;;11.10;72.90;;;9.85;76.35;95955.91;4862321;28;20402;-65
2022/04/14 01:31:06;;;;;;;13.43;10.38;;;11.10;73.10;;;9.83;76.62;95958.72;4887771;28;20455;-65
2022/04/14 01:33:32;;;;;;;17.38;12.55;;;11.10;73.40;;;9.80;75.17;95959.09;4863702;28;20456;-65
2022/04/14 01:35:58;;;;;;;22.08;14.98;;;11.10;73.60;;;9.80;76.81;95963.56;4878036;28;20316;-65
2022/04/14 01:38:24;;;;;;;20.05;15.68;;;11.00;73.80;;;9.76;75.82;95962.31;4914186;28;20211;-65
2022/04/14 01:40:50;;;;;;;23.38;14.15;;;11.10;73.90;;;9.75;77.20;95964.13;4905954;28;20322;-66
2022/04/14 01:43:16;;;;;;;14.43;11.38;;;11.00;73.90;;;9.70;75.80;95958.59;4875046;28;20442;-65
2022/04/14 01:45:46;;;;;;;14.93;11.90;;;11.00;73.90;;;9.70;76.26;95965.66;4875634;28;20530;-65
2022/04/14 01:48:13;;;;;;;14.57;11.07;;;10.90;73.90;;;9.68;76.04;95965.84;4895947;28;20040;-65
2022/04/14 01:50:39;;;;;;;15.27;10.93;;;10.90;74.00;;;9.66;75.77;95965.22;4867231;28;20671;-65
2022/04/14 01:53:05;;;;;;;16.00;10.10;;;10.90;74.00;;;9.66;76.96;95967.84;4915707;28;20606;-65
2022/04/14 01:55:31;;;;;;;12.30;9.88;;;10.90;73.90;;;9.63;76.22;95962.97;4875914;28;20451;-65
2022/04/14 01:57:57;;;;;;;13.38;10.48;;;10.90;73.90;;;9.61;77.35;95967.59;4880261;28;20364;-65
2022/04/14 02:00:23;;;;;;;17.63;10.98;;;10.90;74.10;;;9.61;77.02;95964.16;4924928;28;20790;-65
2022/04/14 02:02:49;;;;;;;13.77;11.30;;;10.90;74.50;;;9.59;77.96;95977.47;4870612;28;20471;-65
2022/04/14 02:05:15;;;;;;;15.98;11.57;;;10.90;74.30;;;9.57;77.41;95971.59;4890225;28;20288;-65
2022/04/14 02:07:41;;;;;;;14.77;10.98;;;10.80;74.80;;;9.57;77.12;95968.16;4856999;28;20361;-65
2022/04/14 02:10:08;;;;;;;14.65;11.68;;;10.80;74.80;;;9.55;77.93;95973.59;4916873;28;20370;-65
2022/04/14 02:12:34;;;;;;;16.77;11.35;;;10.80;74.80;;;9.53;78.10;95975.59;4872958;28;20386;-65
2022/04/14 02:15:01;;;;;;;18.35;12.07;;;10.80;74.70;;;9.52;77.48;95981.84;4894408;28;20389;-65
2022/04/14 02:17:27;;;;;;;15.48;11.05;;;10.80;75.00;;;9.48;78.46;95977.94;4905822;28;20157;-65
2022/04/14 02:19:53;;;;;;;15.82;11.38;;;10.80;74.90;;;9.47;78.02;95979.75;4893059;28;20479;-65
2022/04/14 02:22:19;;;;;;;17.75;11.88;;;10.80;74.90;;;9.47;77.42;95973.69;4892990;28;20333;-65
2022/04/14 02:24:45;;;;;;;13.77;11.13;;;10.80;74.80;;;9.45;77.71;95973.88;4924261;28;20479;-65
2022/04/14 02:27:12;;;;;;;13.50;11.25;;;10.70;74.80;;;9.44;78.75;95976.69;4855479;28;20454;-65
2022/04/14 02:29:38;;;;;;;24.83;21.48;;;10.70;74.90;;;9.41;78.54;95972.63;4875080;28;20450;-65
2022/04/14 02:32:04;;;;;;;29.90;21.50;;;10.70;75.20;;;9.42;77.95;95979.50;4887330;28;20367;-65
2022/04/14 02:34:31;;;;;;;25.00;20.05;;;10.70;75.20;;;9.39;78.35;95989.56;4906801;28;20486;-65
2022/04/14 02:36:57;;;;;;;16.85;13.25;;;10.70;75.20;;;9.36;79.30;95980.25;4868281;28;20421;-65
2022/04/14 02:39:23;;;;;;;22.95;18.83;;;10.70;75.00;;;9.36;78.96;95979.44;4859489;28;20247;-65
2022/04/14 02:41:49;;;;;;;25.00;19.30;;;10.70;75.20;;;9.34;79.02;95978.81;4872294;28;20489;-65
2022/04/14 02:44:15;;;;;;;21.45;15.85;;;10.60;75.20;;;9.34;78.67;95978.81;4859930;28;20402;-64
2022/04/14 02:46:41;;;;;;;16.27;12.57;;;10.60;75.20;;;9.34;79.04;95978.81;4899990;28;20490;-64
2022/04/14 02:49:10;;;;;;;14.40;11.73;;;10.60;75.10;;;9.31;79.72;95974.75;4898466;28;20040;-65
2022/04/14 02:51:36;;;;;;;17.23;10.70;;;10.60;75.00;;;9.28;78.05;95969.03;4919396;28;20343;-65
2022/04/14 02:54:02;;;;;;;15.50;11.77;;;10.60;75.00;;;9.26;79.21;95981.50;4888025;28;20349;-64
2022/04/14 02:56:28;;;;;;;13.35;10.65;;;10.60;75.10;;;9.25;79.44;95979.88;4871268;28;20247;-64
2022/04/14 02:58:55;;;;;;;15.20;11.35;;;10.60;75.00;;;9.23;78.38;95982.69;4929828;23;20698;-62
2022/04/14 03:01:21;;;;;;;14.20;10.75;;;10.50;75.00;;;9.20;79.23;95981.25;4888325;28;20558;-62
2022/04/14 03:03:47;;;;;;;15.02;10.30;;;10.50;75.00;;;9.16;78.92;95987.88;4887262;28;20478;-62
2022/04/14 03:06:13;;;;;;;13.77;10.35;;;10.40;74.90;;;9.12;79.06;95984.00;4906813;28;20441;-62
2022/04/14 03:08:39;;;;;;;31.77;23.33;;;10.40;75.10;;;9.10;79.52;95987.78;4893145;28;20608;-62
2022/04/14 03:11:05;;;;;;;19.85;13.57;;;10.40;75.50;;;9.10;79.53;95987.78;4926259;28;20846;-62
2022/04/14 03:13:31;;;;;;;19.25;14.07;;;10.40;75.60;;;9.04;78.74;95991.94;4931380;28;20640;-62
2022/04/14 03:15:57;;;;;;;18.25;12.32;;;10.30;76.10;;;9.01;79.26;95994.94;4921894;28;20156;-62
2022/04/14 03:18:23;;;;;;;14.95;11.93;;;10.30;76.00;;;8.98;80.22;95990.06;4931572;28;20555;-62
2022/04/14 03:20:49;;;;;;;15.10;12.77;;;10.30;76.20;;;8.95;80.41;95985.16;4921267;28;20433;-62
2022/04/14 03:23:15;;;;;;;18.92;15.23;;;10.20;76.10;;;8.93;79.46;95989.78;4918876;28;20510;-62
2022/04/14 03:25:41;;;;;;;18.95;14.85;;;10.20;76.50;;;8.91;79.76;95994.41;4894501;28;20861;-62
2022/04/14 03:28:08;;;;;;;16.77;12.38;;;10.10;76.50;;;8.87;79.80;95996.56;4924940;28;20394;-62
2022/04/14 03:30:34;;;;;;;18.33;15.95;;;10.10;76.40;;;8.84;80.55;95993.50;4918811;28;20299;-61
2022/04/14 03:33:00;;;;;;;30.65;24.17;;;10.10;76.60;;;8.83;80.25;95991.88;4871110;28;20311;-62
2022/04/14 03:35:26;;;;;;;16.60;14.18;;;10.10;76.80;;;8.82;80.04;96003.34;4910776;28;20319;-62
2022/04/14 03:37:52;;;;;;;19.40;15.30;;;10.10;76.80;;;8.79;80.63;96001.06;4909050;28;20242;-62
2022/04/14 03:40:18;;;;;;;20.65;16.50;;;10.10;76.90;;;8.77;80.83;96005.69;4899665;28;20343;-63
2022/04/14 03:42:44;;;;;;;19.98;15.30;;;10.10;77.10;;;8.76;80.62;96001.44;4895283;28;20378;-62
2022/04/14 03:45:10;;;;;;;18.63;13.48;;;10.10;77.00;;;8.76;80.72;96009.31;4904365;28;20482;-62
2022/04/14 03:47:37;;;;;;;17.88;13.57;;;10.10;77.00;;;8.71;80.60;96015.09;4888848;28;20542;-63
2022/04/14 03:50:03;;;;;;;25.35;14.55;;;10.10;77.00;;;8.67;80.94;96005.16;4889548;28;20798;-62
2022/04/14 03:52:30;;;;;;;18.05;13.75;;;9.90;77.40;;;8.63;80.87;96007.31;4906932;28;20363;-62
2022/04/14 03:54:57;;;;;;;16.73;13.60;;;9.90;77.40;;;8.61;80.82;96000.63;4893446;28;20344;-62
2022/04/14 03:57:23;;;;;;;17.98;13.55;;;9.90;77.30;;;8.57;80.95;96006.19;4941676;28;20489;-62
2022/04/14 03:59:50;;;;;;;22.30;13.60;;;9.90;77.50;;;8.53;81.19;96009.38;4929738;28;20444;-62
2022/04/14 04:02:15;;;;;;;15.95;13.40;;;9.70;77.90;;;8.50;81.78;96010.53;4913252;28;20454;-62
2022/04/14 04:04:42;;;;;;;17.83;13.05;;;9.80;77.90;;;8.52;81.60;96015.59;4916934;28;20503;-62
2022/04/14 04:07:08;;;;;;;17.13;13.05;;;9.80;78.10;;;8.50;82.03;96007.91;4935263;28;20756;-62
2022/04/14 04:09:35;;;;;;;18.50;13.75;;;9.80;78.10;;;8.50;81.42;96007.09;4928272;28;20306;-64
2022/04/14 04:12:01;;;;;;;17.85;14.35;;;9.80;78.10;;;8.51;82.14;96004.31;4906887;28;20767;-69
2022/04/14 04:14:27;;;;;;;18.75;13.82;;;9.90;77.80;;;8.51;82.09;96012.16;4905145;28;20437;-70
2022/04/14 04:16:53;;;;;;;18.63;13.63;;;9.90;77.80;;;8.52;81.62;96015.59;4893776;28;20436;-66
2022/04/14 04:19:19;;;;;;;17.88;14.25;;;9.90;77.60;;;8.53;81.88;96010.19;4895011;28;20542;-64
2022/04/14 04:21:46;;;;;;;17.45;12.77;;;9.90;77.50;;;8.50;81.58;96013.16;4902906;28;20355;-69
2022/04/14 04:24:12;;;;;;;19.45;14.07;;;9.80;77.70;;;8.46;82.03;96019.75;4937945;28;20409;-69
2022/04/14 04:26:38;;;;;;;18.05;13.93;;;9.70;78.30;;;8.42;82.47;96021.09;4941385;28;20696;-69
2022/04/14 04:29:04;;;;;;;18.30;13.35;;;9.70;78.40;;;8.41;82.22;96019.47;4926246;28;20394;-67
2022/04/14 04:31:30;;;;;;;19.88;14.55;;;9.80;78.30;;;8.39;82.67;96021.47;4906223;28;20249;-63
2022/04/14 04:33:56;;;;;;;23.25;15.27;;;9.80;78.20;;;8.39;82.54;96026.72;4923717;28;20805;-63
2022/04/14 04:36:23;;;;;;;17.92;14.00;;;9.80;78.20;;;8.39;82.61;96025.91;4914862;28;20357;-63
2022/04/14 04:38:48;;;;;;;16.85;14.07;;;9.80;77.90;;;8.37;82.61;96023.41;4920539;28;20561;-63
2022/04/14 04:41:15;;;;;;;25.75;20.80;;;9.80;77.70;;;8.39;82.82;96029.34;4897878;28;20778;-63
2022/04/14 04:43:40;;;;;;;23.95;17.38;;;9.80;78.00;;;8.39;82.61;96031.94;4940042;28;20333;-64
2022/04/14 04:46:08;;;;;;;19.30;14.38;;;9.80;77.90;;;8.38;82.80;96025.09;4953662;28;20468;-64
2022/04/14 04:48:35;;;;;;;16.83;13.07;;;9.90;77.60;;;8.38;82.82;96030.31;4914522;28;20324;-64
2022/04/14 04:51:01;;;;;;;16.98;13.60;;;9.90;77.50;;;8.36;82.49;96037.53;4904524;28;20352;-64
2022/04/14 04:53:27;;;;;;;21.80;13.20;;;9.80;77.50;;;8.35;82.28;96038.50;4934455;28;20732;-64
2022/04/14 04:55:53;;;;;;;17.40;13.70;;;9.80;77.40;;;8.35;82.70;96035.88;4913806;28;20810;-64
2022/04/14 04:58:19;;;;;;;18.23;13.52;;;9.70;77.60;;;8.34;82.36;96029.03;4901311;28;20683;-63
2022/04/14 05:00:46;;;;;;;22.25;14.32;;;9.70;77.50;;;8.34;82.53;96034.25;4914851;28;20328;-64
2022/04/14 05:03:12;;;;;;;19.42;13.55;;;9.80;77.40;;;8.34;82.31;96039.50;4915826;28;20690;-66
2022/04/14 05:05:38;;;;;;;19.30;13.88;;;9.90;77.30;;;8.36;82.59;96041.94;4888200;28;20402;-66
2022/04/14 05:08:07;;;;;;;19.50;13.40;;;9.80;77.40;;;8.37;82.48;96040.94;4894440;28;20322;-63
2022/04/14 05:10:34;;;;;;;17.80;13.27;;;9.90;77.30;;;8.41;82.62;96044.88;4915217;28;20438;-64
2022/04/14 05:13:00;;;;;;;19.30;13.35;;;10.00;77.10;;;8.42;82.88;96055.19;4876978;28;20221;-63
2022/04/14 05:15:26;;;;;;;17.85;13.52;;;10.00;77.10;;;8.45;83.06;96056.63;4935651;28;20291;-64
2022/04/14 05:17:52;;;;;;;20.25;13.65;;;9.90;77.40;;;8.48;82.41;96059.72;4927478;28;20363;-63
2022/04/14 05:20:21;;;;;;;20.63;14.80;;;10.10;77.10;;;8.52;83.19;96057.53;4922199;28;20398;-69
2022/04/14 05:22:47;;;;;;;20.85;14.70;;;10.10;76.90;;;8.58;82.84;96057.66;4943559;28;20269;-68
2022/04/14 05:25:13;;;;;;;21.50;14.95;;;10.20;76.70;;;8.64;82.52;96056.16;4929726;28;20287;-70
2022/04/14 05:27:42;;;;;;;17.73;14.90;;;10.30;76.30;;;8.71;82.54;96061.47;4906185;28;20367;-70
2022/04/14 05:30:10;;;;;;;20.38;14.00;;;10.40;76.30;;;8.78;82.85;96051.91;4909380;28;20547;-68
2022/04/14 05:32:41;;;;;;;18.23;14.10;;;10.50;76.00;;;8.85;83.14;96063.31;4953562;28;20303;-68
2022/04/14 05:35:25;;;;;;;16.52;13.55;;;10.60;75.90;;;8.92;82.34;96064.22;4924329;28;20339;-69
2022/04/14 05:37:52;;;;;;;16.20;13.88;;;10.70;75.50;;;9.01;82.84;96057.91;4947886;28;20579;-69
2022/04/14 05:40:19;;;;;;;17.15;14.73;;;10.80;75.30;;;9.09;82.95;96059.63;4945895;28;20217;-66
2022/04/14 05:42:48;;;;;;;17.88;13.38;;;10.90;75.10;;;9.18;82.02;96075.09;4936450;28;20446;-67
2022/04/14 05:45:14;;;;;;;16.63;13.23;;;11.10;74.70;;;9.29;82.78;96067.78;4925908;28;20326;-71
2022/04/14 05:47:42;;;;;;;17.10;13.48;;;11.20;74.40;;;9.42;82.42;96066.13;4900719;28;20218;-66
2022/04/14 05:50:09;;;;;;;17.17;13.30;;;11.50;74.00;;;9.56;82.53;96063.69;4895595;28;20352;-71
2022/04/14 05:52:35;;;;;;;16.90;14.07;;;11.60;73.50;;;9.67;81.78;96071.91;4933602;28;20605;-63
2022/04/14 05:55:02;;;;;;;15.65;13.07;;;11.70;73.10;;;9.77;80.78;96069.81;4922618;28;20486;-62
2022/04/14 05:57:31;;;;;;;17.48;13.70;;;11.80;72.90;;;9.92;81.65;96076.81;4885669;28;20299;-63
2022/04/14 05:59:57;;;;;;;17.52;13.45;;;12.00;72.10;;;10.03;81.13;96081.63;4889331;28;20364;-62
2022/04/14 06:02:24;;;;;;;16.02;13.23;;;12.20;71.40;;;10.17;80.15;96080.72;4909348;28;20540;-62
2022/04/14 06:04:51;;;;;;;19.52;13.85;;;12.30;71.00;;;10.31;79.69;96082.53;4911202;28;20460;-64
2022/04/14 06:07:17;;;;;;;16.20;13.07;;;12.40;70.70;;;10.42;78.76;96074.16;4913411;28;20432;-71
2022/04/14 06:09:43;;;;;;;17.58;13.32;;;12.60;70.20;;;10.52;78.74;96075.66;4951203;28;20184;-67
2022/04/14 06:12:10;;;;;;;18.75;12.50;;;12.60;70.00;;;10.64;79.04;96074.16;4953783;28;20288;-65
2022/04/14 06:14:39;;;;;;;16.15;12.70;;;12.80;69.50;;;10.76;79.27;96077.88;4930299;28;20365;-66
2022/04/14 06:17:09;;;;;;;13.88;12.48;;;13.00;69.10;;;10.89;78.11;96070.09;4904544;28;20424;-66
2022/04/14 06:19:39;;;;;;;13.37;11.80;;;13.00;68.70;;;10.98;77.90;96074.19;4911946;28;20433;-66
2022/04/14 06:22:14;;;;;;;17.25;12.40;;;13.10;68.60;;;11.12;77.87;96075.13;4912426;28;20261;-66
2022/04/14 06:24:40;;;;;;;16.98;12.25;;;13.30;68.10;;;11.22;77.19;96080.03;4895747;28;20439;-67
2022/04/14 06:27:07;;;;;;;13.88;12.13;;;13.40;68.20;;;11.37;76.81;96078.09;4931462;28;20463;-66
2022/04/14 06:29:32;;;;;;;16.85;12.85;;;13.60;67.30;;;11.51;76.89;96081.59;4925370;28;20266;-66
2022/04/14 06:31:58;;;;;;;15.02;12.95;;;13.70;67.10;;;11.64;76.75;96081.69;4929865;28;20306;-66
2022/04/14 06:34:25;;;;;;;20.10;12.63;;;13.80;66.90;;;11.79;76.40;96079.75;4905594;28;20348;-66
2022/04/14 06:36:52;;;;;;;16.88;12.95;;;14.00;66.70;;;11.92;75.92;96082.44;4911319;28;20259;-66
2022/04/14 06:39:18;;;;;;;15.63;12.45;;;14.10;66.70;;;12.07;75.87;96084.09;4894154;28;20303;-67
2022/04/14 06:41:44;;;;;;;17.88;12.32;;;14.20;66.40;;;12.20;75.53;96079.66;4912886;28;20543;-67
2022/04/14 06:44:10;;;;;;;15.75;12.20;;;14.30;66.30;;;12.32;75.06;96081.72;4938356;28;20602;-67
2022/04/14 06:46:38;;;;;;;14.82;12.07;;;14.40;66.20;;;12.47;74.74;96080.56;4929586;28;20702;-67
2022/04/14 06:49:05;;;;;;;17.55;12.60;;;14.60;66.00;;;12.60;74.55;96079.75;4895533;28;20313;-67
2022/04/14 06:51:31;;;;;;;15.32;12.10;;;14.60;65.80;;;12.75;74.25;96080.38;4945562;28;21032;-68
2022/04/14 06:53:58;;;;;;;14.23;11.95;;;14.80;65.20;;;12.95;73.43;96087.47;4899549;28;20318;-67
2022/04/14 06:56:24;;;;;;;13.73;11.63;;;15.10;65.00;;;13.13;73.89;96087.66;4903229;28;20348;-67
2022/04/14 06:58:50;;;;;;;16.20;11.13;;;15.20;64.40;;;13.28;72.14;96088.28;4877640;28;20799;-65
2022/04/14 07:01:16;;;;;;;13.25;11.18;;;15.40;63.30;;;13.48;72.42;96088.25;4894237;28;20266;-65
2022/04/14 07:03:43;;;;;;;13.90;10.68;;;15.70;62.90;;;13.64;71.54;96087.78;4928742;28;20660;-66
2022/04/14 07:06:09;;;;;;;15.60;10.55;;;15.90;62.40;;;13.81;71.20;96092.63;4920750;28;20322;-70
2022/04/14 07:08:38;;;;;;;13.45;10.48;;;16.20;61.60;;;13.99;71.31;96088.25;4940775;28;20687;-67
2022/04/14 07:11:04;;;;;;;14.93;11.00;;;16.50;60.20;;;14.17;70.29;96092.03;4921106;28;20779;-67
2022/04/14 07:13:30;;;;;;;13.88;10.75;;;16.70;59.20;;;14.33;69.10;96092.38;4951124;28;20407;-67
2022/04/14 07:15:57;;;;;;;14.27;10.88;;;16.80;58.20;;;14.50;68.98;96098.00;4891636;28;20335;-68
2022/04/14 07:18:24;;;;;;;14.23;10.85;;;17.10;57.90;;;14.67;68.02;96088.50;4936336;28;20425;-65
2022/04/14 07:20:50;;;;;;;15.65;10.48;;;17.40;57.40;;;14.86;68.27;96096.53;4917273;28;20668;-68
2022/04/14 07:23:17;;;;;;;16.00;9.93;;;17.60;57.20;;;15.04;67.88;96099.25;4911613;28;20118;-68
2022/04/14 07:25:44;;;;;;;14.65;10.50;;;17.80;55.90;;;15.24;66.85;96089.28;4936988;28;20029;-68
2022/04/14 07:28:10;;;;;;;14.63;11.05;;;18.10;55.30;;;15.50;67.41;96092.69;4880153;28;20209;-67
2022/04/14 07:30:38;;;;;;;12.18;9.32;;;18.50;54.30;;;15.74;65.69;96094.50;4890698;28;20753;-68
2022/04/14 07:33:05;;;;;;;12.80;9.25;;;18.70;52.80;;;15.97;64.60;96087.72;4915551;28;20559;-62
2022/04/14 07:35:32;;;;;;;14.57;9.40;;;18.80;52.30;;;16.22;64.95;96093.72;4922527;28;20358;-66
2022/04/14 07:37:59;;;;;;;12.68;9.30;;;19.30;51.60;;;16.48;63.95;96095.19;4880716;28;20266;-66
2022/04/14 07:40:25;;;;;;;12.77;9.10;;;19.60;50.20;;;16.74;63.47;96099.34;4921508;28;20291;-68
2022/04/14 07:42:51;;;;;;;12.75;9.40;;;20.00;49.50;;;16.98;62.56;96089.59;4901316;28;20386;-67
2022/04/14 07:45:18;;;;;;;18.92;9.75;;;20.00;49.40;;;17.26;62.59;96097.72;4914979;28;20388;-67
2022/04/14 07:47:45;;;;;;;12.55;8.95;;;20.40;49.40;;;17.53;62.10;96092.72;4915968;28;20362;-68
2022/04/14 07:50:13;;;;;;;13.35;9.40;;;20.60;48.10;;;17.79;60.92;96095.97;4890474;28;20514;-67
2022/04/14 07:52:49;;;;;;;13.90;9.40;;;20.90;48.00;;;18.14;58.51;96096.69;4903107;28;20659;-67
2022/04/14 07:55:24;;;;;;;11.88;8.27;;;21.30;47.10;;;18.47;57.25;96097.84;4942268;28;20291;-67
2022/04/14 07:57:54;;;;;;;11.93;7.88;;;21.60;46.60;;;18.82;59.41;96092.38;4903401;28;20514;-67
2022/04/14 08:00:21;;;;;;;11.73;8.68;;;22.10;45.60;;;19.16;58.55;96102.00;4874013;28;20584;-66
2022/04/14 08:02:56;;;;;;;12.43;8.43;;;22.40;45.10;;;19.47;54.36;96097.97;4915762;28;20433;-67
2022/04/14 08:05:27;;;;;;;10.93;7.80;;;22.30;43.90;;;19.82;53.97;96103.00;4929886;28;20776;-66
2022/04/14 08:07:53;;;;;;;9.93;7.78;;;22.80;43.60;;;20.19;56.16;96100.53;4934548;28;20328;-67
2022/04/14 08:10:20;;;;;;;10.77;7.85;;;23.20;43.30;;;20.54;54.37;96107.34;4917744;28;20409;-67
2022/04/14 08:12:47;;;;;;;10.30;8.02;;;23.30;42.20;;;20.86;53.18;96104.75;4913013;28;20346;-67
2022/04/14 08:15:13;;;;;;;14.48;8.75;;;23.60;42.20;;;21.19;52.42;96095.66;4929528;28;20639;-67
2022/04/14 08:17:43;;;;;;;11.15;8.50;;;23.80;41.60;;;21.42;50.39;96102.53;4916836;28;20330;-67
2022/04/14 08:20:11;;;;;;;13.18;8.40;;;23.80;41.60;;;21.70;50.86;96098.69;4916021;28;20295;-67
2022/04/14 08:22:57;;;;;;;9.38;7.60;;;24.20;41.20;;;22.05;46.28;96094.63;4906869;28;20295;-67
2022/04/14 08:25:26;;;;;;;13.27;7.88;;;24.60;39.30;;;22.32;48.63;96100.63;4924162;28;20249;-68
2022/04/14 08:27:53;;;;;;;10.18;7.32;;;24.80;39.00;;;22.49;47.91;96101.22;4943562;28;20481;-66
2022/04/14 08:30:21;;;;;;;12.68;8.07;;;24.60;37.80;;;22.61;45.90;96106.31;4939806;28;20215;-66
2022/04/14 08:32:48;;;;;;;10.18;7.35;;;24.90;38.00;;;22.79;45.92;96105.84;4924790;28;20997;-66
2022/04/14 08:35:15;;;;;;;11.27;7.78;;;25.10;36.90;;;22.86;45.96;96111.00;4915625;28;20336;-67
2022/04/14 08:37:42;;;;;;;9.73;6.65;;;25.10;38.10;;;22.98;45.17;96108.84;4927548;28;20792;-67
2022/04/14 08:40:12;;;;;;;9.13;7.05;;;25.20;36.90;;;23.07;43.96;96106.41;4930330;28;20428;-66
2022/04/14 08:42:41;;;;;;;11.88;7.78;;;25.50;36.60;;;23.20;43.75;96114.75;4890023;28;20323;-67
2022/04/14 08:45:12;;;;;;;11.32;6.80;;;25.60;36.90;;;23.31;42.02;96107.53;4912714;28;20355;-66
2022/04/14 08:47:40;;;;;;;10.27;7.38;;;25.70;36.40;;;23.36;43.54;96114.75;4897660;28;20343;-66
2022/04/14 08:50:11;;;;;;;11.70;7.40;;;25.80;36.20;;;23.47;43.79;96105.63;4899326;28;20262;-66
2022/04/14 08:52:39;;;;;;;13.57;7.32;;;26.20;36.50;;;23.60;43.07;96106.97;4894165;28;20406;-67
2022/04/14 08:55:08;;;;;;;14.30;8.07;;;26.20;36.00;;;23.75;42.88;96112.31;4885774;28;20507;-66
2022/04/14 08:57:42;;;;;;;9.88;7.15;;;26.50;35.70;;;23.92;41.69;96118.19;4919554;28;20152;-66
2022/04/14 09:00:10;;;;;;;13.57;6.80;;;26.80;35.60;;;24.11;42.29;96115.72;4925867;28;20411;-71
2022/04/14 09:02:37;;;;;;;10.30;7.28;;;27.00;34.90;;;24.25;42.29;96119.44;4898392;28;20796;-71
2022/04/14 09:05:04;;;;;;;10.45;7.57;;;27.20;34.70;;;24.48;42.52;96119.91;4922438;28;20291;-66
2022/04/14 09:07:30;;;;;;;10.55;6.68;;;27.50;34.10;;;24.79;42.02;96118.66;4889886;28;20719;-64
2022/04/14 09:09:56;;;;;;;8.32;6.82;;;28.20;33.80;;;25.09;41.99;96119.53;4870973;28;20292;-63
2022/04/14 09:12:23;;;;;;;12.45;7.25;;;28.60;33.20;;;25.37;41.20;96112.63;4920260;28;20329;-64
2022/04/14 09:14:49;;;;;;;11.45;6.82;;;28.90;32.20;;;25.54;40.86;96121.88;4894915;28;20362;-63
2022/04/14 09:17:15;;;;;;;11.05;6.65;;;28.50;32.50;;;25.73;40.21;96119.31;4901384;28;20606;-64
2022/04/14 09:19:42;;;;;;;11.05;7.03;;;28.80;31.90;;;25.90;39.56;96113.47;4907797;28;20367;-63
2022/04/14 09:22:11;;;;;;;10.02;7.63;;;28.70;32.40;;;26.04;39.34;96114.41;4876023;28;20445;-63
2022/04/14 09:24:48;;;;;;;11.07;7.15;;;29.00;32.10;;;26.27;37.65;96106.59;4911385;28;20319;-64
2022/04/14 09:27:43;;;;;;;10.48;6.82;;;29.40;31.30;;;26.36;37.27;96110.28;4928119;28;20878;-64
2022/04/14 09:30:20;;;;;;;13.50;7.30;;;29.20;31.40;;;26.41;36.65;96107.50;4924787;28;20210;-65
2022/04/14 09:32:46;;;;;;;9.88;7.10;;;29.30;31.20;;;26.59;37.53;96104.03;4899499;28;20273;-64
2022/04/14 09:35:20;;;;;;;12.38;7.22;;;29.70;29.90;;;26.74;35.71;96103.03;4929909;28;20420;-69
2022/04/14 09:37:59;;;;;;;8.88;6.80;;;29.80;30.50;;;26.82;36.83;96103.19;4924127;28;20339;-63
2022/04/14 09:40:30;;;;;;;8.00;6.77;;;29.60;30.00;;;27.09;35.10;96096.31;4924821;28;20444;-64
2022/04/14 09:42:56;;;;;;;11.77;6.95;;;30.50;29.20;;;27.31;36.07;96099.22;4936658;28;20501;-65
2022/04/14 09:45:25;;;;;;;8.77;6.65;;;30.80;28.10;;;27.39;35.22;96097.75;4940845;28;20904;-68
2022/04/14 09:47:53;;;;;;;11.50;6.55;;;30.80;28.70;;;27.53;35.40;96103.19;4931354;28;20783;-65
2022/04/14 09:50:39;;;;;;;9.10;6.82;;;31.00;28.60;;;27.69;33.30;96091.03;4907312;28;20768;-71
2022/04/14 09:53:10;;;;;;;9.50;6.60;;;31.30;28.30;;;27.87;34.20;96100.97;4911863;28;20567;-72
2022/04/14 09:55:38;;;;;;;9.98;6.78;;;31.70;27.70;;;28.00;34.79;96088.56;4953019;28;20828;-67
2022/04/14 09:58:11;;;;;;;10.10;6.80;;;31.80;27.80;;;28.14;34.03;96089.38;4919190;28;20695;-69
2022/04/14 10:00:50;;;;;;;8.88;6.57;;;31.90;27.20;;;28.23;33.31;96097.56;4944309;28;20377;-67
2022/04/14 10:03:28;;;;;;;9.85;5.82;;;32.00;27.10;;;28.36;33.45;96088.69;4909605;28;20340;-67
2022/04/14 10:06:00;;;;;;;11.35;5.80;;;32.30;26.80;;;28.48;33.41;96097.06;4927310;28;20329;-66
2022/04/14 10:08:29;;;;;;;10.68;6.43;;;32.50;27.20;;;28.62;34.20;96095.16;4927145;28;20655;-66
2022/04/14 10:11:10;;;;;;;10.82;6.07;;;32.80;26.60;;;28.81;33.05;96099.63;4928576;28;20504;-66
2022/04/14 10:13:38;;;;;;;12.98;7.80;;;33.10;26.10;;;29.00;33.77;96085.97;4926050;28;20707;-65
2022/04/14 10:16:05;;;;;;;23.58;12.32;;;33.60;25.70;;;29.20;33.34;96088.19;4899495;28;20799;-64